Flight Number: AVA1274 Duration: 2:00
Departure: Frankfurt am Main (EDDF) at 09:15 Distance: 661.931 Nm
Arrival: Arlanda (ESSA) at 11:15 Equipment: B737

Weather Information
Frankfurt / M-Flughafen, Germany (EDDF) 50-03N 008-36E 113M Feb 25, 2021 - 07:50 PM EST / 2021.02.26 0050 UTC
Wind: from the SW (230 degrees) at 5 MPH (4 KT) (direction variable):0
Visibility: greater than 7 mile(s):0 Temperature: 37 F (3 C) Dew Point: 33 F (1 C) Relative Humidity: 86% Pressure (altimeter): 30.36 in. Hg (1028 hPa)
ob: EDDF 260050Z 23004KT 200V260 CAVOK 03/01 Q1028 NOSIG cycle: 1
Sunrise: 06:17 Sunset: 16:59 (UTC)

Stockholm / Arlanda, Sweden (ESSA) 59-39N 017-57E 61M Feb 25, 2021 - 07:50 PM EST / 2021.02.26 0050 UTC
Wind: from the WSW (240 degrees) at 22 MPH (19 KT):0
Visibility: greater than 7 mile(s):0
Sky conditions: mostly clear Temperature: 37 F (3 C) Dew Point: 33 F (1 C) Relative Humidity: 86% Pressure (altimeter): 29.74 in. Hg (1007 hPa)
ob: ESSA 260050Z 24019KT 9999 FEW016 03/01 Q1007 R19L/19//95 R08/19//95 NOSIG cycle: 1
Sunrise: 05:56 Sunset: 16:05 (UTC)

TAF:2021/02/25 18:12 TAF ESSA 251730Z 2518/2618 24014G24KT 9999 BKN020 PROB40 2518/2522 BKN014 BECMG 2608/2611 30010G20KT

Previous Pireps for this route
Date Aircraft Flight time Fuel used Landing rate On time
2015-04-25B73701.5510855-257Yes
2016-03-15B73702.1611519-261Charter
2016-10-18B73702.0010167-221Yes
2016-10-26B73702.1211120-204Yes
2018-02-02B73702.0110583-197Yes
2018-11-08B7371.47119800Charter
2019-06-13B73701.5110309-154Yes
2020-06-14B73702.0910728-271Yes
(pireps marked green are flown by you)

Route map